Terminal Aerodrome Forecast
Issued by NWS

Home | Current Version | Previous Version | Graphics & Text | Print | Product List | Glossary On
Versions: 1 2 3 4 5 6 7 8 9 10 11 12 13 14 15
000
FTUS43 KICT 231630 AAC
TAFHUT
TAF AMD
KHUT 231630Z 2317/2412 33011KT 6SM -RADZ SCT025 OVC035
     FM231800 34027G36KT 6SM -RADZ SCT025 BKN035
     FM240000 33016G23KT P6SM SCT060 BKN100
     FM240400 30014KT P6SM FEW100 SCT250=

USA.gov is the U.S. government's official web portal to all federal, state and local government web resources and services.